Artvin — 9HA2782 — position and weather

sailwx.info

Track history (hours):
 
Tides and Currents Weather Stations Pressure Air Temp Water Temp Dewpoint Dewpoint Depression Visibility Wind Speed Wind Dir Waves Ship Positions

Artvin

Last reported at 2015-Mar-26 07:14 UTC. Time now 2015-Mar-29 19:33 UTC.
Position N 16°27' W 062°27'.

Length 229 m; draft 9.1 m.

Type: Cargo ship. MMSI: 215678000.

Date/timePositionNaut miles runAvg speedWind from/ knotsBaromVisibWave heightAir tempDewpointWater temp
2015-Mar-26 07:14N 16°27' W 062°27'1211.1
2015-Mar-26 06:11N 16°31' W 062°15'711.2
2015-Mar-26 05:34N 16°33' W 062°08'1110.8
2015-Mar-26 04:34N 16°37' W 061°58'1110.8
2015-Mar-26 03:34N 16°43' W 061°48'1110.7
2015-Mar-26 02:34N 16°48' W 061°39'1110.6
2015-Mar-26 01:34N 16°54' W 061°30'1110.5
2015-Mar-26 00:34N 16°60' W 061°20'  
2015-Mar-18 02:20N 36°11' W 028°05'911.2
2015-Mar-18 01:33N 36°15' W 027°56'1111.4
2015-Mar-18 00:33N 36°22' W 027°44'1211.1
2015-Mar-17 23:27N 36°28' W 027°31'1111.3
2015-Mar-17 22:28N 36°35' W 027°20'1011.1
2015-Mar-17 21:33N 36°40' W 027°09'1211.0
2015-Mar-17 20:28N 36°46' W 026°56'1010.7
2015-Mar-17 19:33N 36°52' W 026°46'1111.1
2015-Mar-17 18:34N 36°58' W 026°35'1111.2
2015-Mar-17 17:33N 37°04' W 026°23'1111.4
2015-Mar-17 16:33N 37°10' W 026°11'1111.2
2015-Mar-17 15:33N 37°16' W 025°59'1111.5
2015-Mar-17 14:33N 37°22' W 025°47'1211.6
2015-Mar-17 13:34N 37°29' W 025°35'1111.4
2015-Mar-17 12:34N 37°35' W 025°23'1111.4
2015-Mar-17 11:34N 37°40' W 025°10'1211.7
2015-Mar-17 10:33N 37°47' W 024°58'1111.0
2015-Mar-17 09:33N 37°52' W 024°45'1110.8
2015-Mar-17 08:33N 37°57' W 024°33'1111.0
2015-Mar-17 07:34N 38°02' W 024°21'1110.9
2015-Mar-17 06:33N 38°08' W 024°09'1110.7
2015-Mar-17 05:31N 38°13' W 023°56'  
Track history (hours):
 
Tides and Currents Weather Stations Pressure Air Temp Water Temp Dewpoint Dewpoint Depression Visibility Wind Speed Wind Dir Waves Ship Positions

Artvin

Last reported at 2015-Mar-26 07:14 UTC. Time now 2015-Mar-29 19:33 UTC.
Position N 16°27' W 062°27'.

Length 229 m; draft 9.1 m.

Type: Cargo ship. MMSI: 215678000.

Date/timePositionNaut miles runAvg speedWind from/ knotsBaromVisibWave heightAir tempDewpointWater temp
2015-Mar-26 07:14N 16°27' W 062°27'1211.1
2015-Mar-26 06:11N 16°31' W 062°15'711.2
2015-Mar-26 05:34N 16°33' W 062°08'1110.8
2015-Mar-26 04:34N 16°37' W 061°58'1110.8
2015-Mar-26 03:34N 16°43' W 061°48'1110.7
2015-Mar-26 02:34N 16°48' W 061°39'1110.6
2015-Mar-26 01:34N 16°54' W 061°30'1110.5
2015-Mar-26 00:34N 16°60' W 061°20'  
2015-Mar-18 02:20N 36°11' W 028°05'911.2
2015-Mar-18 01:33N 36°15' W 027°56'1111.4
2015-Mar-18 00:33N 36°22' W 027°44'1211.1
2015-Mar-17 23:27N 36°28' W 027°31'1111.3
2015-Mar-17 22:28N 36°35' W 027°20'1011.1
2015-Mar-17 21:33N 36°40' W 027°09'1211.0
2015-Mar-17 20:28N 36°46' W 026°56'1010.7
2015-Mar-17 19:33N 36°52' W 026°46'1111.1
2015-Mar-17 18:34N 36°58' W 026°35'1111.2
2015-Mar-17 17:33N 37°04' W 026°23'1111.4
2015-Mar-17 16:33N 37°10' W 026°11'1111.2
2015-Mar-17 15:33N 37°16' W 025°59'1111.5
2015-Mar-17 14:33N 37°22' W 025°47'1211.6
2015-Mar-17 13:34N 37°29' W 025°35'1111.4
2015-Mar-17 12:34N 37°35' W 025°23'1111.4
2015-Mar-17 11:34N 37°40' W 025°10'1211.7
2015-Mar-17 10:33N 37°47' W 024°58'1111.0
2015-Mar-17 09:33N 37°52' W 024°45'1110.8
2015-Mar-17 08:33N 37°57' W 024°33'1111.0
2015-Mar-17 07:34N 38°02' W 024°21'1110.9
2015-Mar-17 06:33N 38°08' W 024°09'1110.7
2015-Mar-17 05:31N 38°13' W 023°56'  

Dump ship's entire track history